createdAt,value
2019-02-23T00:00:04.723Z,99.90
2019-02-23T00:02:35.248Z,99.90
2019-02-23T00:05:05.669Z,99.90
2019-02-23T00:07:36.242Z,99.90
2019-02-23T00:10:06.755Z,99.90
2019-02-23T00:12:37.255Z,99.90
2019-02-23T00:15:08.297Z,99.90
2019-02-23T00:17:38.723Z,99.90
2019-02-23T00:20:09.153Z,99.90
2019-02-23T00:22:40.602Z,99.90
2019-02-23T00:25:11.130Z,99.90
2019-02-23T00:27:41.563Z,99.90
2019-02-23T00:30:11.985Z,99.90
2019-02-23T00:32:42.411Z,99.90
2019-02-23T00:35:12.839Z,99.90
2019-02-23T00:37:43.265Z,99.90
2019-02-23T00:40:13.739Z,99.90
2019-02-23T00:42:44.223Z,99.90
2019-02-23T00:45:14.649Z,99.90
2019-02-23T00:47:45.075Z,99.90
2019-02-23T00:50:15.505Z,99.90
2019-02-23T00:52:46.036Z,99.90
2019-02-23T00:55:16.460Z,99.90
2019-02-23T00:57:46.885Z,99.90
2019-02-23T01:00:17.321Z,99.90
2019-02-23T01:02:48.969Z,99.90
2019-02-23T01:05:19.403Z,99.90
2019-02-23T01:07:49.829Z,99.90
2019-02-23T01:10:20.508Z,99.90
2019-02-23T01:12:50.982Z,99.90
2019-02-23T01:15:21.412Z,99.90
2019-02-23T01:17:51.840Z,99.90
2019-02-23T01:20:22.266Z,99.90
2019-02-23T01:22:52.692Z,99.90
2019-02-23T01:25:23.119Z,99.90
2019-02-23T01:27:53.545Z,99.90
2019-02-23T01:30:23.974Z,99.90
2019-02-23T01:32:55.426Z,99.90
2019-02-23T01:35:25.851Z,99.90
2019-02-23T01:37:56.280Z,99.90
2019-02-23T01:40:26.807Z,99.90
2019-02-23T01:42:57.279Z,99.90
2019-02-23T01:45:27.765Z,99.90
2019-02-23T01:47:58.193Z,99.90
2019-02-23T01:50:28.620Z,99.90
2019-02-23T01:52:59.299Z,99.90
2019-02-23T01:55:29.880Z,99.90
2019-02-23T01:58:00.308Z,99.90
2019-02-23T02:00:31.251Z,99.90
2019-02-23T02:03:01.673Z,99.90
2019-02-23T02:05:32.101Z,99.90
2019-02-23T02:08:02.532Z,99.90
2019-02-23T02:10:33.331Z,99.90
2019-02-23T02:13:04.024Z,99.90
2019-02-23T02:15:34.638Z,99.90
2019-02-23T02:18:05.059Z,99.90
2019-02-23T02:20:35.484Z,99.90
2019-02-23T02:23:06.017Z,99.90
2019-02-23T02:25:36.643Z,99.90
2019-02-23T02:28:07.071Z,99.90
2019-02-23T02:30:37.704Z,99.90
2019-02-23T02:33:09.157Z,99.90
2019-02-23T02:35:39.583Z,99.90
2019-02-23T02:38:10.007Z,99.90
2019-02-23T02:40:40.434Z,99.90
2019-02-23T02:43:11.886Z,99.90
2019-02-23T02:45:42.355Z,99.90
2019-02-23T02:48:12.841Z,99.90
2019-02-23T02:50:43.279Z,99.90
2019-02-23T02:53:14.019Z,99.90
2019-02-23T02:55:44.430Z,99.90
2019-02-23T02:58:14.856Z,99.90
2019-02-23T03:00:45.491Z,99.90
2019-02-23T03:03:16.120Z,99.90
2019-02-23T03:05:46.758Z,99.90
2019-02-23T03:08:17.390Z,99.90
2019-02-23T03:10:47.814Z,99.90
2019-02-23T03:13:18.236Z,99.90
2019-02-23T03:15:48.736Z,99.90
2019-02-23T03:18:19.195Z,99.90
2019-02-23T03:20:49.620Z,99.90
2019-02-23T03:23:20.066Z,99.90
2019-02-23T03:25:50.479Z,99.90
2019-02-23T03:28:20.900Z,99.90
2019-02-23T03:30:51.333Z,99.90
2019-02-23T03:33:21.946Z,99.90
2019-02-23T03:35:52.388Z,99.90
2019-02-23T03:38:22.816Z,99.90
2019-02-23T03:40:53.241Z,99.90
2019-02-23T03:43:23.670Z,99.90
2019-02-23T03:45:54.095Z,99.90
2019-02-23T03:48:24.571Z,99.90
2019-02-23T03:50:55.065Z,99.90
2019-02-23T03:53:25.791Z,99.90
2019-02-23T03:55:56.488Z,99.90
2019-02-23T03:58:27.019Z,99.90
2019-02-23T04:00:57.476Z,99.90
2019-02-23T04:03:27.985Z,99.90
2019-02-23T04:05:58.438Z,99.90
2019-02-23T04:08:29.066Z,99.90
2019-02-23T04:10:59.702Z,99.90
2019-02-23T04:13:30.124Z,99.90
2019-02-23T04:16:00.551Z,99.90
2019-02-23T04:18:30.978Z,99.90
2019-02-23T04:21:02.225Z,99.90
2019-02-23T04:23:32.958Z,99.90
2019-02-23T04:26:03.384Z,99.90
2019-02-23T04:28:33.813Z,99.90
2019-02-23T04:31:04.243Z,99.90
2019-02-23T04:33:34.768Z,99.90
2019-02-23T04:36:05.198Z,99.90
2019-02-23T04:38:35.622Z,99.90
2019-02-23T04:41:06.050Z,99.90
2019-02-23T04:43:36.476Z,99.90
2019-02-23T04:46:06.903Z,99.90
2019-02-23T04:48:37.330Z,99.90
2019-02-23T04:51:14.400Z,99.90
2019-02-23T04:53:39.869Z,99.90
2019-02-23T04:56:10.502Z,99.90
2019-02-23T04:58:40.984Z,99.90
2019-02-23T05:01:11.410Z,99.90
2019-02-23T05:03:41.837Z,99.90
2019-02-23T05:06:12.264Z,99.90
2019-02-23T05:08:42.898Z,99.90
2019-02-23T05:11:13.631Z,99.90
2019-02-23T05:13:44.059Z,99.90
2019-02-23T05:16:14.485Z,99.90
2019-02-23T05:18:46.246Z,99.90
2019-02-23T05:21:26.040Z,99.90
2019-02-23T05:23:49.807Z,99.90
2019-02-23T05:26:20.288Z,99.90
2019-02-23T05:28:50.922Z,99.90
2019-02-23T05:31:22.177Z,99.90
2019-02-23T05:33:52.901Z,99.90
2019-02-23T05:36:23.328Z,99.90
2019-02-23T05:38:53.756Z,99.90
2019-02-23T05:41:25.548Z,99.90
2019-02-23T05:43:57.579Z,99.90
2019-02-23T05:46:28.010Z,99.90
2019-02-23T05:48:58.431Z,99.90
2019-02-23T05:51:38.348Z,99.90
2019-02-23T05:54:02.565Z,99.90
2019-02-23T05:56:33.092Z,99.90
2019-02-23T05:59:03.523Z,99.90
2019-02-23T06:01:33.947Z,99.90
2019-02-23T06:04:05.397Z,99.90
2019-02-23T06:06:35.826Z,99.90
2019-02-23T06:09:06.612Z,99.90
2019-02-23T06:11:37.087Z,99.90
2019-02-23T06:14:07.516Z,99.90
2019-02-23T06:16:37.947Z,99.90
2019-02-23T06:19:08.369Z,99.90
2019-02-23T06:21:52.316Z,99.90
2019-02-23T06:24:11.886Z,99.90
2019-02-23T06:26:42.357Z,99.90
2019-02-23T06:29:12.846Z,99.90
2019-02-23T06:31:43.273Z,99.90
2019-02-23T06:34:16.503Z,99.90
2019-02-23T06:36:45.863Z,99.90
2019-02-23T06:39:16.306Z,99.90
2019-02-23T06:41:46.717Z,99.90
2019-02-23T06:44:17.348Z,99.90
2019-02-23T06:46:47.981Z,99.90
2019-02-23T06:49:18.409Z,99.90
2019-02-23T06:51:48.849Z,99.90
2019-02-23T06:54:19.307Z,99.90
2019-02-23T06:56:49.953Z,99.90
2019-02-23T06:59:20.526Z,99.90
2019-02-23T07:01:50.951Z,99.90
2019-02-23T07:04:21.383Z,99.90
2019-02-23T07:06:51.806Z,99.90
2019-02-23T07:09:22.234Z,99.90
2019-02-23T07:11:52.663Z,99.90
2019-02-23T07:14:23.292Z,99.90
2019-02-23T07:16:53.924Z,99.90
2019-02-23T07:19:24.555Z,99.90
2019-02-23T07:21:54.982Z,99.90
2019-02-23T07:24:26.433Z,99.90
2019-02-23T07:26:56.860Z,99.90
2019-02-23T07:29:27.338Z,99.90
2019-02-23T07:31:57.817Z,99.90
2019-02-23T07:34:28.248Z,99.90
2019-02-23T07:36:58.879Z,99.90
2019-02-23T07:39:29.507Z,99.90
2019-02-23T07:42:00.138Z,99.90
2019-02-23T07:44:30.771Z,99.90
2019-02-23T07:47:01.402Z,99.90
2019-02-23T07:49:32.034Z,99.90
2019-02-23T07:52:02.666Z,99.90
2019-02-23T07:54:33.299Z,99.90
2019-02-23T07:57:03.875Z,99.90
2019-02-23T07:59:34.413Z,99.90
2019-02-23T08:02:04.885Z,98.40
2019-02-23T08:04:36.339Z,95.60
2019-02-23T08:07:06.771Z,90.60
2019-02-23T08:09:37.191Z,85.50
2019-02-23T08:12:07.620Z,78.40
2019-02-23T08:14:39.069Z,75.20
2019-02-23T08:17:09.495Z,73.00
2019-02-23T08:19:39.924Z,74.40
2019-02-23T08:22:10.352Z,72.40
2019-02-23T08:24:40.783Z,66.00
2019-02-23T08:27:11.203Z,61.60
2019-02-23T08:29:41.631Z,59.10
2019-02-23T08:32:12.109Z,56.50
2019-02-23T08:34:42.586Z,57.20
2019-02-23T08:37:13.024Z,60.10
2019-02-23T08:39:43.442Z,62.40
2019-02-23T08:42:13.873Z,63.30
2019-02-23T08:44:44.316Z,61.80
2019-02-23T08:47:14.727Z,57.00
2019-02-23T08:49:45.176Z,54.90
2019-02-23T08:52:17.063Z,51.80
2019-02-23T08:54:47.610Z,49.40
2019-02-23T08:57:18.291Z,47.20
2019-02-23T08:59:48.704Z,46.20
2019-02-23T09:02:19.224Z,46.10
2019-02-23T09:04:49.660Z,45.40
2019-02-23T09:07:20.288Z,47.20
2019-02-23T09:09:50.719Z,48.70
2019-02-23T09:12:21.346Z,50.40
2019-02-23T09:14:51.774Z,51.10
2019-02-23T09:17:22.205Z,51.20
2019-02-23T09:19:52.628Z,52.40
2019-02-23T09:22:23.058Z,51.70
2019-02-23T09:24:53.488Z,49.90
2019-02-23T09:27:23.954Z,46.30
2019-02-23T09:29:54.441Z,45.30
2019-02-23T09:32:25.890Z,43.10
2019-02-23T09:34:56.374Z,39.60
2019-02-23T09:37:27.011Z,37.50
2019-02-23T09:39:57.538Z,36.40
2019-02-23T09:42:28.162Z,36.30
2019-02-23T09:44:58.659Z,36.00
2019-02-23T09:47:31.878Z,36.70
2019-02-23T09:50:02.388Z,36.00
2019-02-23T09:52:32.908Z,35.70
2019-02-23T09:55:03.395Z,36.30
2019-02-23T09:57:34.090Z,35.50
2019-02-23T10:00:04.839Z,35.50
2019-02-23T10:02:35.350Z,35.30
2019-02-23T10:05:06.173Z,36.10
2019-02-23T10:07:36.599Z,35.70
2019-02-23T10:10:08.027Z,35.10
2019-02-23T10:12:38.495Z,34.90
2019-02-23T10:15:09.409Z,34.50
2019-02-23T10:17:40.049Z,32.90
2019-02-23T10:20:10.972Z,31.70
2019-02-23T10:22:41.800Z,30.80
2019-02-23T10:25:12.263Z,30.00
2019-02-23T10:27:42.791Z,29.50
2019-02-23T10:30:13.525Z,29.90
2019-02-23T10:32:44.236Z,29.80
2019-02-23T10:35:15.295Z,30.30
2019-02-23T10:37:46.035Z,30.10
2019-02-23T10:40:17.850Z,30.90
2019-02-23T10:42:48.312Z,30.40
2019-02-23T10:45:18.928Z,30.40
2019-02-23T10:47:50.275Z,30.80
2019-02-23T10:50:20.926Z,28.80
2019-02-23T10:52:53.506Z,27.40
2019-02-23T10:55:24.051Z,27.90
2019-02-23T10:57:54.591Z,28.30
2019-02-23T11:00:26.114Z,28.90
2019-02-23T11:02:56.642Z,28.90
2019-02-23T11:05:27.262Z,29.30
2019-02-23T11:07:57.943Z,27.60
2019-02-23T11:10:28.431Z,26.90
2019-02-23T11:12:59.151Z,26.20
2019-02-23T11:15:29.827Z,26.10
2019-02-23T11:18:02.897Z,26.20
2019-02-23T11:20:33.535Z,26.40
2019-02-23T11:23:04.067Z,27.70
2019-02-23T11:25:34.715Z,27.10
2019-02-23T11:28:05.347Z,27.40
2019-02-23T11:30:35.823Z,26.90
2019-02-23T11:33:06.830Z,27.30
2019-02-23T11:35:37.291Z,26.70
2019-02-23T11:38:13.452Z,26.60
2019-02-23T11:40:43.923Z,27.00
2019-02-23T11:43:14.415Z,27.20
2019-02-23T11:45:47.851Z,27.20
2019-02-23T11:48:18.435Z,27.10
2019-02-23T11:50:49.199Z,27.70
2019-02-23T11:53:19.702Z,26.80
2019-02-23T11:55:50.015Z,27.40
2019-02-23T11:58:20.500Z,27.30
2019-02-23T12:00:51.231Z,26.50
2019-02-23T12:03:21.726Z,26.50
2019-02-23T12:05:52.159Z,26.20
2019-02-23T12:08:28.611Z,25.50
2019-02-23T12:10:59.095Z,26.00
2019-02-23T12:13:29.572Z,25.00
2019-02-23T12:15:59.996Z,24.20
2019-02-23T12:18:30.420Z,24.20
2019-02-23T12:21:00.848Z,24.90
2019-02-23T12:23:32.309Z,25.60
2019-02-23T12:26:02.727Z,25.80
2019-02-23T12:28:33.152Z,24.80
2019-02-23T12:31:04.914Z,24.80
2019-02-23T12:33:35.444Z,24.70
2019-02-23T12:36:05.866Z,23.70
2019-02-23T12:38:36.297Z,23.50
2019-02-23T12:41:06.729Z,23.40
2019-02-23T12:43:37.455Z,23.40
2019-02-23T12:46:08.087Z,22.70
2019-02-23T12:48:39.852Z,22.40
2019-02-23T12:51:10.278Z,22.30
2019-02-23T12:53:40.806Z,21.90
2019-02-23T12:56:11.228Z,23.10
2019-02-23T12:58:41.748Z,22.30
2019-02-23T13:01:12.233Z,22.10
2019-02-23T13:03:42.919Z,21.00
2019-02-23T13:06:13.346Z,21.10
2019-02-23T13:09:20.919Z,21.60
2019-02-23T13:12:01.610Z,22.10
2019-02-23T13:15:05.625Z,21.70
2019-02-23T13:18:05.850Z,21.40
2019-02-23T13:21:31.986Z,21.30
2019-02-23T13:24:43.447Z,20.70
2019-02-23T13:27:26.471Z,20.30
2019-02-23T13:30:43.892Z,21.10
2019-02-23T13:33:41.157Z,20.20
2019-02-23T13:36:41.075Z,20.00
2019-02-23T13:39:40.884Z,20.40
2019-02-23T13:42:54.750Z,19.00
2019-02-23T13:46:24.788Z,19.00
2019-02-23T13:49:26.752Z,19.20
2019-02-23T13:52:53.293Z,18.80
2019-02-23T13:56:05.852Z,18.20
2019-02-23T13:59:01.015Z,18.80
2019-02-23T14:01:54.487Z,19.00
2019-02-23T14:05:02.356Z,19.20
2019-02-23T14:08:09.383Z,20.40
2019-02-23T14:11:29.264Z,20.50
2019-02-23T14:14:45.527Z,20.80
2019-02-23T14:17:56.743Z,21.70
2019-02-23T14:20:56.560Z,22.30
2019-02-23T14:24:22.794Z,24.00
2019-02-23T14:27:01.795Z,25.70
2019-02-23T14:30:17.616Z,29.60
2019-02-23T14:33:18.937Z,31.00
2019-02-23T14:36:02.573Z,34.10
2019-02-23T14:39:23.184Z,36.40
2019-02-23T14:42:21.869Z,38.70
2019-02-23T14:45:30.827Z,41.10
2019-02-23T14:48:33.743Z,42.00
2019-02-23T14:51:44.286Z,41.10
2019-02-23T14:55:01.237Z,40.40
2019-02-23T14:58:20.676Z,40.30
2019-02-23T15:01:18.038Z,40.90
2019-02-23T15:04:41.097Z,41.40
2019-02-23T15:07:55.657Z,42.80
2019-02-23T15:11:05.508Z,43.20
2019-02-23T15:14:24.986Z,42.90
2019-02-23T15:17:34.431Z,43.20
2019-02-23T15:20:59.022Z,43.90
2019-02-23T15:23:39.028Z,44.40
2019-02-23T15:26:29.026Z,43.90
2019-02-23T15:29:42.982Z,44.10
2019-02-23T15:33:15.601Z,44.30
2019-02-23T15:36:13.566Z,43.60
2019-02-23T15:39:12.014Z,43.80
2019-02-23T15:42:21.322Z,44.20
2019-02-23T15:45:18.444Z,43.30
2019-02-23T15:48:27.066Z,42.60
2019-02-23T15:50:57.617Z,41.30
2019-02-23T15:53:29.152Z,40.30
2019-02-23T15:55:59.859Z,39.80
2019-02-23T15:58:30.382Z,40.00
2019-02-23T16:01:00.883Z,41.20
2019-02-23T16:03:31.540Z,41.90
2019-02-23T16:06:02.004Z,43.70
2019-02-23T16:08:32.426Z,43.80
2019-02-23T16:11:02.851Z,44.60
2019-02-23T16:13:34.353Z,46.10
2019-02-23T16:16:05.049Z,47.50
2019-02-23T16:18:35.467Z,49.20
2019-02-23T16:21:06.104Z,50.30
2019-02-23T16:23:38.107Z,51.90
2019-02-23T16:26:08.673Z,52.60
2019-02-23T16:28:39.121Z,53.50
2019-02-23T16:31:09.544Z,54.60
2019-02-23T16:33:41.004Z,56.40
2019-02-23T16:36:11.422Z,57.10
2019-02-23T16:38:41.856Z,59.10
2019-02-23T16:41:12.267Z,61.30
2019-02-23T16:43:42.705Z,64.30
2019-02-23T16:46:13.130Z,67.70
2019-02-23T16:48:43.561Z,70.20
2019-02-23T16:51:13.984Z,71.80
2019-02-23T16:53:44.412Z,73.90
2019-02-23T16:56:14.887Z,77.10
2019-02-23T16:58:45.391Z,81.40
2019-02-23T17:01:15.851Z,84.80
2019-02-23T17:03:47.499Z,85.60
2019-02-23T17:06:17.978Z,87.40
2019-02-23T17:08:48.410Z,88.60
2019-02-23T17:11:18.834Z,90.90
2019-02-23T17:13:49.260Z,91.40
2019-02-23T17:16:19.687Z,91.70
2019-02-23T17:18:50.117Z,92.40
2019-02-23T17:21:20.542Z,93.20
2019-02-23T17:23:51.995Z,93.80
2019-02-23T17:26:22.526Z,94.60
2019-02-23T17:28:52.951Z,95.00
2019-02-23T17:31:23.376Z,96.00
2019-02-23T17:33:53.812Z,97.10
2019-02-23T17:36:24.456Z,98.20
2019-02-23T17:38:55.171Z,99.90
2019-02-23T17:41:25.596Z,99.90
2019-02-23T17:43:56.023Z,99.90
2019-02-23T17:46:26.760Z,99.90
2019-02-23T17:48:57.388Z,99.90
2019-02-23T17:51:27.814Z,99.90
2019-02-23T17:53:59.472Z,99.90
2019-02-23T17:56:30.103Z,99.90
2019-02-23T17:59:00.576Z,99.90
2019-02-23T18:01:31.109Z,99.90
2019-02-23T18:04:03.131Z,99.90
2019-02-23T18:06:35.031Z,99.90
2019-02-23T18:09:06.340Z,99.90
2019-02-23T18:11:36.760Z,99.90
2019-02-23T18:14:08.210Z,99.90
2019-02-23T18:16:38.638Z,99.90
2019-02-23T18:19:09.065Z,99.90
2019-02-23T18:21:39.495Z,99.90
2019-02-23T18:24:10.944Z,99.90
2019-02-23T18:26:41.384Z,99.90
2019-02-23T18:29:11.958Z,99.90
2019-02-23T18:31:42.428Z,99.90
2019-02-23T18:34:13.888Z,99.90
2019-02-23T18:36:44.408Z,99.90
2019-02-23T18:39:14.839Z,99.90
2019-02-23T18:41:45.265Z,99.90
2019-02-23T18:44:16.719Z,99.90
2019-02-23T18:46:47.140Z,99.90
2019-02-23T18:49:17.571Z,99.90
2019-02-23T18:51:48.006Z,99.90
2019-02-23T18:54:18.527Z,99.90
2019-02-23T18:56:49.156Z,99.90
2019-02-23T18:59:19.585Z,99.90
2019-02-23T19:01:50.055Z,99.90
2019-02-23T19:04:20.587Z,99.90
2019-02-23T19:06:51.067Z,99.90
2019-02-23T19:09:21.496Z,99.90
2019-02-23T19:11:51.921Z,99.90
2019-02-23T19:14:22.351Z,99.90
2019-02-23T19:16:52.779Z,99.90
2019-02-23T19:19:23.203Z,99.90
2019-02-23T19:21:53.836Z,99.90
2019-02-23T19:24:24.263Z,99.90
2019-02-23T19:26:54.997Z,99.90
2019-02-23T19:29:25.438Z,99.90
2019-02-23T19:31:57.748Z,99.90
2019-02-23T19:34:28.017Z,99.90
2019-02-23T19:36:58.444Z,99.90
2019-02-23T19:39:28.872Z,99.90
2019-02-23T19:41:59.302Z,99.90
2019-02-23T19:44:30.751Z,99.90
2019-02-23T19:47:14.127Z,99.90
2019-02-23T19:49:44.608Z,99.90
2019-02-23T19:52:18.954Z,99.90
2019-02-23T19:54:49.559Z,99.90
2019-02-23T19:57:19.985Z,99.90
2019-02-23T19:59:50.415Z,99.90
2019-02-23T20:02:21.976Z,99.90
2019-02-23T20:04:52.495Z,99.90
2019-02-23T20:07:23.028Z,99.90
2019-02-23T20:09:53.455Z,99.90
2019-02-23T20:12:24.903Z,99.90
2019-02-23T20:14:55.329Z,99.90
2019-02-23T20:17:25.757Z,99.90
2019-02-23T20:19:56.187Z,99.90
2019-02-23T20:22:27.638Z,99.90
2019-02-23T20:24:58.062Z,99.90
2019-02-23T20:27:28.488Z,99.90
2019-02-23T20:29:58.915Z,99.90
2019-02-23T20:32:30.628Z,99.90
2019-02-23T20:35:01.150Z,99.90
2019-02-23T20:37:31.630Z,99.90
2019-02-23T20:40:02.057Z,99.90
2019-02-23T20:42:32.491Z,99.90
2019-02-23T20:45:02.912Z,99.90
2019-02-23T20:47:33.444Z,99.90
2019-02-23T20:50:04.023Z,99.90
2019-02-23T20:52:34.499Z,99.90
2019-02-23T20:55:05.087Z,99.90
2019-02-23T20:57:35.557Z,99.90
2019-02-23T21:00:06.292Z,99.90
2019-02-23T21:02:36.771Z,99.90
2019-02-23T21:05:08.477Z,99.90
2019-02-23T21:07:39.203Z,99.90
2019-02-23T21:10:10.252Z,99.90
2019-02-23T21:12:41.704Z,99.90
2019-02-23T21:15:12.247Z,99.90
2019-02-23T21:17:42.659Z,99.90
2019-02-23T21:20:13.368Z,99.90
2019-02-23T21:22:43.827Z,99.90
2019-02-23T21:25:14.253Z,99.90
2019-02-23T21:27:44.981Z,99.90
2019-02-23T21:30:15.437Z,99.90
2019-02-23T21:32:45.942Z,99.90
2019-02-23T21:35:16.373Z,99.90
2019-02-23T21:37:46.840Z,99.90
2019-02-23T21:40:17.321Z,99.90
2019-02-23T21:42:47.757Z,99.90
2019-02-23T21:45:18.183Z,99.90
2019-02-23T21:47:48.814Z,99.90
2019-02-23T21:50:19.236Z,99.90
2019-02-23T21:52:50.692Z,99.90
2019-02-23T21:55:21.119Z,99.90
2019-02-23T21:57:51.539Z,99.90
2019-02-23T22:00:22.017Z,99.90
2019-02-23T22:02:52.829Z,99.90
2019-02-23T22:05:23.237Z,99.90
2019-02-23T22:07:54.020Z,99.90
2019-02-23T22:10:24.498Z,99.90
2019-02-23T22:12:55.945Z,99.90
2019-02-23T22:15:26.374Z,99.90
2019-02-23T22:17:56.798Z,99.90
2019-02-23T22:20:27.241Z,99.90
2019-02-23T22:22:59.700Z,99.90
2019-02-23T22:25:30.229Z,99.90
2019-02-23T22:28:00.680Z,99.90
2019-02-23T22:30:31.097Z,99.90
2019-02-23T22:33:01.513Z,99.90
2019-02-23T22:35:31.938Z,99.90
2019-02-23T22:38:02.393Z,99.90
2019-02-23T22:40:33.099Z,99.90
2019-02-23T22:43:03.730Z,99.90
2019-02-23T22:45:34.364Z,99.90
2019-02-23T22:48:04.994Z,99.90
2019-02-23T22:50:35.846Z,99.90
2019-02-23T22:53:06.362Z,99.90
2019-02-23T22:55:36.787Z,99.90
2019-02-23T22:58:07.215Z,99.90
2019-02-23T23:00:53.618Z,99.90
2019-02-23T23:03:24.395Z,99.90
2019-02-23T23:05:54.990Z,99.90
2019-02-23T23:08:25.615Z,99.90
2019-02-23T23:10:56.449Z,99.90
2019-02-23T23:13:26.883Z,99.90
2019-02-23T23:15:57.303Z,99.90
2019-02-23T23:18:27.734Z,99.90
2019-02-23T23:20:58.157Z,99.90
2019-02-23T23:23:28.600Z,99.90
2019-02-23T23:25:59.056Z,99.90
2019-02-23T23:28:29.437Z,99.90
2019-02-23T23:30:59.867Z,99.90
2019-02-23T23:33:30.296Z,99.90
2019-02-23T23:36:00.928Z,99.90
2019-02-23T23:38:31.560Z,99.90
2019-02-23T23:41:02.187Z,99.90
2019-02-23T23:43:32.659Z,99.90
2019-02-23T23:46:03.350Z,99.90
2019-02-23T23:48:33.792Z,99.90
2019-02-23T23:51:04.204Z,99.90
2019-02-23T23:53:35.862Z,99.90
2019-02-23T23:56:06.287Z,99.90
2019-02-23T23:58:36.714Z,99.90
